Altmar, New York
Current Conditions -  °F | °C
As of 4:20 AM on Thursday 27 Nov 2014 (Local Time) from KFZY Reporting Station
Light Snow Light Snow  
Wind Chill: 29°   Ceiling: 3200
Heat Index: 29°   Visibility: 2mi
Dew Point: 26°   Wind: 0mph
Humidity: 89%   Direction: NA
Pressure: 30"   Gusts: NA
Location:  43.51°N, 76°W
Report Text: KFZY 270920Z AUTO 00000KT 2SM -SN BR OVC032 M02/M03 A3000 RMK AO2 P0000 T10171033
Loading
Personal Weather Stations






























Interactive Weather Map New forecast layout! Learn more

10-Day Weather Forecast

Advertisements
Track Severe Weather on mobile